sensor_id;sensor_type;location;lat;lon;timestamp;pressure;altitude;pressure_sealevel;temperature;humidity
60874;BME280;46715;40.642;-7.920;2023-07-02T00:00:20;96307.47;;;22.04;82.55
60874;BME280;46715;40.642;-7.920;2023-07-02T00:02:22;96309.78;;;22.05;82.86
60874;BME280;46715;40.642;-7.920;2023-07-02T00:04:22;96309.03;;;22.05;83.15
60874;BME280;46715;40.642;-7.920;2023-07-02T00:06:23;96317.19;;;22.12;83.56
60874;BME280;46715;40.642;-7.920;2023-07-02T00:08:24;96311.88;;;22.12;83.66
60874;BME280;46715;40.642;-7.920;2023-07-02T00:10:25;96311.34;;;22.06;83.49
60874;BME280;46715;40.642;-7.920;2023-07-02T00:12:26;96312.84;;;21.91;84.89
60874;BME280;46715;40.642;-7.920;2023-07-02T00:14:26;96315.56;;;21.79;85.60
60874;BME280;46715;40.642;-7.920;2023-07-02T00:16:27;96314.59;;;21.71;86.66
60874;BME280;46715;40.642;-7.920;2023-07-02T00:18:27;96314.84;;;21.66;87.46
60874;BME280;46715;40.642;-7.920;2023-07-02T00:20:34;96313.19;;;21.61;87.88
60874;BME280;46715;40.642;-7.920;2023-07-02T00:22:38;96310.09;;;21.59;87.48
60874;BME280;46715;40.642;-7.920;2023-07-02T00:24:38;96305.91;;;21.58;87.63
60874;BME280;46715;40.642;-7.920;2023-07-02T00:26:39;96304.13;;;21.62;88.06
60874;BME280;46715;40.642;-7.920;2023-07-02T00:28:44;96305.66;;;21.63;87.66
60874;BME280;46715;40.642;-7.920;2023-07-02T00:30:45;96302.44;;;21.70;87.40
60874;BME280;46715;40.642;-7.920;2023-07-02T00:32:46;96301.69;;;21.70;87.70
60874;BME280;46715;40.642;-7.920;2023-07-02T00:34:46;96296.78;;;21.72;86.83
60874;BME280;46715;40.642;-7.920;2023-07-02T00:36:47;96292.25;;;21.72;86.43
60874;BME280;46715;40.642;-7.920;2023-07-02T00:38:48;96289.16;;;21.70;86.52
60874;BME280;46715;40.642;-7.920;2023-07-02T00:40:49;96295.16;;;21.67;86.29
60874;BME280;46715;40.642;-7.920;2023-07-02T00:42:50;96292.50;;;21.67;85.75
60874;BME280;46715;40.642;-7.920;2023-07-02T00:44:54;96294.03;;;21.68;85.97
60874;BME280;46715;40.642;-7.920;2023-07-02T00:46:57;96294.63;;;21.61;86.12
60874;BME280;46715;40.642;-7.920;2023-07-02T00:48:58;96291.19;;;21.49;86.93
60874;BME280;46715;40.642;-7.920;2023-07-02T00:51:00;96295.97;;;21.43;87.37
60874;BME280;46715;40.642;-7.920;2023-07-02T00:53:01;96292.22;;;21.44;87.87
60874;BME280;46715;40.642;-7.920;2023-07-02T00:55:02;96296.75;;;21.56;87.08
60874;BME280;46715;40.642;-7.920;2023-07-02T00:57:03;96291.53;;;21.59;86.14
60874;BME280;46715;40.642;-7.920;2023-07-02T00:59:06;96292.88;;;21.53;86.31
60874;BME280;46715;40.642;-7.920;2023-07-02T01:01:07;96285.47;;;21.46;86.83
60874;BME280;46715;40.642;-7.920;2023-07-02T01:03:11;96290.31;;;21.44;86.75
60874;BME280;46715;40.642;-7.920;2023-07-02T01:05:15;96284.16;;;21.40;87.35
60874;BME280;46715;40.642;-7.920;2023-07-02T01:07:17;96283.38;;;21.40;87.92
60874;BME280;46715;40.642;-7.920;2023-07-02T01:09:18;96282.19;;;21.37;87.93
60874;BME280;46715;40.642;-7.920;2023-07-02T01:11:22;96281.75;;;21.35;87.89
60874;BME280;46715;40.642;-7.920;2023-07-02T01:13:25;96282.53;;;21.23;88.17
60874;BME280;46715;40.642;-7.920;2023-07-02T01:15:26;96286.22;;;21.19;88.31
60874;BME280;46715;40.642;-7.920;2023-07-02T01:17:28;96282.34;;;21.16;88.13
60874;BME280;46715;40.642;-7.920;2023-07-02T01:21:42;96282.78;;;21.18;87.05
60874;BME280;46715;40.642;-7.920;2023-07-02T01:23:43;96283.09;;;21.17;87.63
60874;BME280;46715;40.642;-7.920;2023-07-02T01:25:44;96283.44;;;21.15;87.35
60874;BME280;46715;40.642;-7.920;2023-07-02T01:27:45;96277.69;;;21.25;88.07
60874;BME280;46715;40.642;-7.920;2023-07-02T01:29:46;96277.53;;;21.34;87.68
60874;BME280;46715;40.642;-7.920;2023-07-02T01:31:47;96279.66;;;21.28;87.97
60874;BME280;46715;40.642;-7.920;2023-07-02T01:33:48;96274.94;;;21.22;88.22
60874;BME280;46715;40.642;-7.920;2023-07-02T01:35:49;96274.38;;;21.16;88.23
60874;BME280;46715;40.642;-7.920;2023-07-02T01:37:50;96271.63;;;21.12;89.29
60874;BME280;46715;40.642;-7.920;2023-07-02T01:39:51;96272.31;;;21.09;88.96
60874;BME280;46715;40.642;-7.920;2023-07-02T01:41:54;96273.75;;;21.07;89.80
60874;BME280;46715;40.642;-7.920;2023-07-02T01:43:55;96267.22;;;21.04;90.06
60874;BME280;46715;40.642;-7.920;2023-07-02T01:45:57;96266.78;;;21.02;90.22
60874;BME280;46715;40.642;-7.920;2023-07-02T01:47:57;96266.34;;;21.00;89.98
60874;BME280;46715;40.642;-7.920;2023-07-02T01:49:58;96264.81;;;20.99;89.71
60874;BME280;46715;40.642;-7.920;2023-07-02T01:52:00;96258.66;;;20.95;89.53
60874;BME280;46715;40.642;-7.920;2023-07-02T01:54:02;96264.16;;;20.90;90.58
60874;BME280;46715;40.642;-7.920;2023-07-02T01:56:02;96262.53;;;20.85;91.51
60874;BME280;46715;40.642;-7.920;2023-07-02T01:58:03;96259.53;;;20.87;92.03
60874;BME280;46715;40.642;-7.920;2023-07-02T02:00:04;96264.16;;;20.90;92.03
60874;BME280;46715;40.642;-7.920;2023-07-02T02:02:15;96253.91;;;20.88;92.24
60874;BME280;46715;40.642;-7.920;2023-07-02T02:04:16;96257.84;;;20.94;92.86
60874;BME280;46715;40.642;-7.920;2023-07-02T02:06:17;96254.31;;;20.90;92.63
60874;BME280;46715;40.642;-7.920;2023-07-02T02:08:19;96255.34;;;20.86;92.79
60874;BME280;46715;40.642;-7.920;2023-07-02T02:10:20;96254.13;;;20.83;93.28
60874;BME280;46715;40.642;-7.920;2023-07-02T02:12:21;96255.56;;;20.81;93.50
60874;BME280;46715;40.642;-7.920;2023-07-02T02:14:21;96256.34;;;20.81;93.82
60874;BME280;46715;40.642;-7.920;2023-07-02T02:16:22;96256.34;;;20.81;93.97
60874;BME280;46715;40.642;-7.920;2023-07-02T02:18:23;96261.97;;;20.80;93.79
60874;BME280;46715;40.642;-7.920;2023-07-02T02:20:23;96254.34;;;20.78;94.52
60874;BME280;46715;40.642;-7.920;2023-07-02T02:22:24;96256.56;;;20.76;94.58
60874;BME280;46715;40.642;-7.920;2023-07-02T02:24:25;96255.81;;;20.75;94.13
60874;BME280;46715;40.642;-7.920;2023-07-02T02:26:25;96253.91;;;20.76;94.26
60874;BME280;46715;40.642;-7.920;2023-07-02T02:28:26;96262.53;;;20.73;94.13
60874;BME280;46715;40.642;-7.920;2023-07-02T02:30:27;96254.13;;;20.71;94.37
60874;BME280;46715;40.642;-7.920;2023-07-02T02:32:28;96255.56;;;20.68;94.42
60874;BME280;46715;40.642;-7.920;2023-07-02T02:34:28;96252.91;;;20.68;94.34
60874;BME280;46715;40.642;-7.920;2023-07-02T02:36:30;96257.13;;;20.69;93.70
60874;BME280;46715;40.642;-7.920;2023-07-02T02:38:30;96259.00;;;20.69;94.35
60874;BME280;46715;40.642;-7.920;2023-07-02T02:40:31;96247.16;;;20.66;94.35
60874;BME280;46715;40.642;-7.920;2023-07-02T02:42:32;96256.19;;;20.65;94.66
60874;BME280;46715;40.642;-7.920;2023-07-02T02:44:32;96256.34;;;20.69;94.90
60874;BME280;46715;40.642;-7.920;2023-07-02T02:46:36;96262.88;;;20.71;95.63
60874;BME280;46715;40.642;-7.920;2023-07-02T02:48:37;96261.53;;;20.77;95.64
60874;BME280;46715;40.642;-7.920;2023-07-02T02:50:38;96257.88;;;20.82;95.52
60874;BME280;46715;40.642;-7.920;2023-07-02T02:52:44;96260.06;;;20.92;95.03
60874;BME280;46715;40.642;-7.920;2023-07-02T02:54:45;96261.50;;;21.02;94.24
60874;BME280;46715;40.642;-7.920;2023-07-02T02:56:46;96253.84;;;21.13;93.30
60874;BME280;46715;40.642;-7.920;2023-07-02T02:58:47;96269.41;;;21.27;92.56
60874;BME280;46715;40.642;-7.920;2023-07-02T03:00:47;96254.09;;;21.36;91.68
60874;BME280;46715;40.642;-7.920;2023-07-02T03:02:50;96253.63;;;21.46;91.12
60874;BME280;46715;40.642;-7.920;2023-07-02T03:04:50;96254.19;;;21.52;90.29
60874;BME280;46715;40.642;-7.920;2023-07-02T03:06:52;96255.81;;;21.57;89.39
60874;BME280;46715;40.642;-7.920;2023-07-02T03:08:53;96252.69;;;21.67;88.28
60874;BME280;46715;40.642;-7.920;2023-07-02T03:10:54;96248.00;;;21.76;86.47
60874;BME280;46715;40.642;-7.920;2023-07-02T03:12:54;96248.50;;;21.82;85.13
60874;BME280;46715;40.642;-7.920;2023-07-02T03:14:55;96245.78;;;21.94;82.99
60874;BME280;46715;40.642;-7.920;2023-07-02T03:16:56;96239.91;;;22.01;81.22
60874;BME280;46715;40.642;-7.920;2023-07-02T03:18:56;96241.09;;;22.04;80.99
60874;BME280;46715;40.642;-7.920;2023-07-02T03:20:57;96242.72;;;22.08;80.09
60874;BME280;46715;40.642;-7.920;2023-07-02T03:22:58;96245.88;;;22.14;79.72
60874;BME280;46715;40.642;-7.920;2023-07-02T03:25:00;96246.00;;;22.18;79.39
60874;BME280;46715;40.642;-7.920;2023-07-02T03:27:00;96242.47;;;22.13;79.10
60874;BME280;46715;40.642;-7.920;2023-07-02T03:29:01;96238.78;;;22.18;77.83
60874;BME280;46715;40.642;-7.920;2023-07-02T03:31:02;96242.75;;;22.24;76.76
60874;BME280;46715;40.642;-7.920;2023-07-02T03:33:02;96242.38;;;22.26;77.08
60874;BME280;46715;40.642;-7.920;2023-07-02T03:35:03;96238.06;;;22.34;76.33
60874;BME280;46715;40.642;-7.920;2023-07-02T03:37:04;96247.88;;;22.33;76.70
60874;BME280;46715;40.642;-7.920;2023-07-02T03:39:05;96244.34;;;22.29;76.35
60874;BME280;46715;40.642;-7.920;2023-07-02T03:41:07;96242.50;;;22.29;73.76
60874;BME280;46715;40.642;-7.920;2023-07-02T03:43:08;96237.50;;;22.28;72.84
60874;BME280;46715;40.642;-7.920;2023-07-02T03:45:08;96240.72;;;22.34;73.05
60874;BME280;46715;40.642;-7.920;2023-07-02T03:47:09;96248.34;;;22.35;73.03
60874;BME280;46715;40.642;-7.920;2023-07-02T03:49:12;96248.34;;;22.35;72.82
60874;BME280;46715;40.642;-7.920;2023-07-02T03:51:14;96244.00;;;22.30;72.38
60874;BME280;46715;40.642;-7.920;2023-07-02T03:53:14;96241.69;;;22.29;70.63
60874;BME280;46715;40.642;-7.920;2023-07-02T03:55:15;96234.78;;;22.24;70.85
60874;BME280;46715;40.642;-7.920;2023-07-02T03:57:16;96234.44;;;22.26;70.26
60874;BME280;46715;40.642;-7.920;2023-07-02T03:59:16;96235.97;;;22.27;70.32
60874;BME280;46715;40.642;-7.920;2023-07-02T04:01:17;96237.59;;;22.31;69.87
60874;BME280;46715;40.642;-7.920;2023-07-02T04:03:18;96241.69;;;22.29;71.12
60874;BME280;46715;40.642;-7.920;2023-07-02T04:05:18;96235.13;;;22.23;72.34
60874;BME280;46715;40.642;-7.920;2023-07-02T04:07:20;96242.13;;;22.15;73.13
60874;BME280;46715;40.642;-7.920;2023-07-02T04:09:21;96241.53;;;22.06;73.69
60874;BME280;46715;40.642;-7.920;2023-07-02T04:11:21;96239.47;;;21.99;73.22
60874;BME280;46715;40.642;-7.920;2023-07-02T04:13:22;96240.94;;;21.96;72.32
60874;BME280;46715;40.642;-7.920;2023-07-02T04:15:23;96242.47;;;21.98;71.98
60874;BME280;46715;40.642;-7.920;2023-07-02T04:17:25;96242.78;;;21.96;71.60
60874;BME280;46715;40.642;-7.920;2023-07-02T04:19:26;96237.94;;;21.98;70.88
60874;BME280;46715;40.642;-7.920;2023-07-02T04:21:27;96236.81;;;21.99;69.92
60874;BME280;46715;40.642;-7.920;2023-07-02T04:23:27;96238.09;;;22.05;68.96
60874;BME280;46715;40.642;-7.920;2023-07-02T04:25:28;96232.88;;;22.09;68.78
60874;BME280;46715;40.642;-7.920;2023-07-02T04:27:29;96240.25;;;22.16;68.29
60874;BME280;46715;40.642;-7.920;2023-07-02T04:29:29;96237.50;;;22.12;68.56
60874;BME280;46715;40.642;-7.920;2023-07-02T04:31:30;96241.72;;;22.13;68.38
60874;BME280;46715;40.642;-7.920;2023-07-02T04:33:31;96237.84;;;22.10;68.42
60874;BME280;46715;40.642;-7.920;2023-07-02T04:35:36;96235.09;;;22.07;68.56
60874;BME280;46715;40.642;-7.920;2023-07-02T04:37:37;96237.34;;;22.05;68.50
60874;BME280;46715;40.642;-7.920;2023-07-02T04:39:37;96233.03;;;22.00;68.81
60874;BME280;46715;40.642;-7.920;2023-07-02T04:41:38;96236.81;;;21.99;68.87
60874;BME280;46715;40.642;-7.920;2023-07-02T04:43:39;96237.59;;;22.00;68.46
60874;BME280;46715;40.642;-7.920;2023-07-02T04:45:39;96234.06;;;21.95;68.89
60874;BME280;46715;40.642;-7.920;2023-07-02T04:47:42;96231.00;;;21.93;69.14
60874;BME280;46715;40.642;-7.920;2023-07-02T04:49:43;96237.16;;;21.98;68.81
60874;BME280;46715;40.642;-7.920;2023-07-02T04:51:44;96229.53;;;21.96;68.81
60874;BME280;46715;40.642;-7.920;2023-07-02T04:53:45;96228.25;;;21.90;68.79
60874;BME280;46715;40.642;-7.920;2023-07-02T04:55:45;96241.41;;;21.86;69.43
60874;BME280;46715;40.642;-7.920;2023-07-02T04:57:46;96240.41;;;21.91;69.29
60874;BME280;46715;40.642;-7.920;2023-07-02T04:59:47;96235.69;;;21.84;69.02
60874;BME280;46715;40.642;-7.920;2023-07-02T05:01:49;96236.56;;;21.88;69.33
60874;BME280;46715;40.642;-7.920;2023-07-02T05:03:53;96239.88;;;21.85;69.36
60874;BME280;46715;40.642;-7.920;2023-07-02T05:05:55;96234.13;;;21.83;69.00
60874;BME280;46715;40.642;-7.920;2023-07-02T05:07:56;96235.25;;;21.82;68.95
60874;BME280;46715;40.642;-7.920;2023-07-02T05:09:58;96235.78;;;21.88;69.12
60874;BME280;46715;40.642;-7.920;2023-07-02T05:11:58;96232.00;;;21.89;68.83
60874;BME280;46715;40.642;-7.920;2023-07-02T05:13:59;96238.50;;;21.91;68.57
60874;BME280;46715;40.642;-7.920;2023-07-02T05:16:00;96235.97;;;21.95;68.38
60874;BME280;46715;40.642;-7.920;2023-07-02T05:18:00;96238.03;;;22.02;68.23
60874;BME280;46715;40.642;-7.920;2023-07-02T05:20:04;96242.22;;;22.03;68.16
60874;BME280;46715;40.642;-7.920;2023-07-02T05:22:05;96248.47;;;22.10;68.12
60874;BME280;46715;40.642;-7.920;2023-07-02T05:24:07;96243.50;;;22.09;68.15
60874;BME280;46715;40.642;-7.920;2023-07-02T05:26:08;96244.78;;;22.15;67.80
60874;BME280;46715;40.642;-7.920;2023-07-02T05:28:08;96238.03;;;22.18;67.96
60874;BME280;46715;40.642;-7.920;2023-07-02T05:30:09;96246.44;;;22.20;67.75
60874;BME280;46715;40.642;-7.920;2023-07-02T05:32:10;96243.69;;;22.16;67.90
60874;BME280;46715;40.642;-7.920;2023-07-02T05:34:11;96235.63;;;22.12;68.18
60874;BME280;46715;40.642;-7.920;2023-07-02T05:36:11;96232.28;;;22.16;68.06
60874;BME280;46715;40.642;-7.920;2023-07-02T05:38:12;96241.53;;;22.22;68.17
60874;BME280;46715;40.642;-7.920;2023-07-02T05:40:13;96243.09;;;22.23;67.48
60874;BME280;46715;40.642;-7.920;2023-07-02T05:42:14;96255.53;;;22.35;67.43
60874;BME280;46715;40.642;-7.920;2023-07-02T05:44:14;96253.53;;;22.31;67.39
60874;BME280;46715;40.642;-7.920;2023-07-02T05:46:16;96247.00;;;22.29;67.73
60874;BME280;46715;40.642;-7.920;2023-07-02T05:48:16;96252.78;;;22.31;67.59
60874;BME280;46715;40.642;-7.920;2023-07-02T05:50:18;96250.13;;;22.31;67.73
60874;BME280;46715;40.642;-7.920;2023-07-02T05:52:18;96247.81;;;22.29;67.87
60874;BME280;46715;40.642;-7.920;2023-07-02T05:54:19;96249.53;;;22.38;68.00
60874;BME280;46715;40.642;-7.920;2023-07-02T05:56:20;96254.56;;;22.43;67.64
60874;BME280;46715;40.642;-7.920;2023-07-02T05:58:21;96248.06;;;22.40;67.54
60874;BME280;46715;40.642;-7.920;2023-07-02T06:00:21;96254.22;;;22.44;67.31
60874;BME280;46715;40.642;-7.920;2023-07-02T06:02:22;96259.28;;;22.50;67.36
60874;BME280;46715;40.642;-7.920;2023-07-02T06:04:23;96258.25;;;22.54;67.18
60874;BME280;46715;40.642;-7.920;2023-07-02T06:06:23;96253.88;;;22.62;66.59
60874;BME280;46715;40.642;-7.920;2023-07-02T06:08:27;96255.50;;;22.67;66.48
60874;BME280;46715;40.642;-7.920;2023-07-02T06:10:27;96253.00;;;22.74;66.41
60874;BME280;46715;40.642;-7.920;2023-07-02T06:12:28;96253.50;;;22.79;66.11
60874;BME280;46715;40.642;-7.920;2023-07-02T06:14:29;96253.06;;;22.93;65.90
60874;BME280;46715;40.642;-7.920;2023-07-02T06:16:29;96248.91;;;22.96;65.39
60874;BME280;46715;40.642;-7.920;2023-07-02T06:18:30;96245.78;;;23.10;64.79
60874;BME280;46715;40.642;-7.920;2023-07-02T06:20:31;96241.41;;;23.18;64.16
60874;BME280;46715;40.642;-7.920;2023-07-02T06:22:31;96249.53;;;23.25;63.83
60874;BME280;46715;40.642;-7.920;2023-07-02T06:24:32;96252.63;;;23.27;63.81
60874;BME280;46715;40.642;-7.920;2023-07-02T06:26:34;96247.34;;;23.30;63.45
60874;BME280;46715;40.642;-7.920;2023-07-02T06:28:35;96248.25;;;23.58;62.42
60874;BME280;46715;40.642;-7.920;2023-07-02T06:30:37;96246.91;;;23.67;62.25
60874;BME280;46715;40.642;-7.920;2023-07-02T06:32:38;96249.53;;;23.87;62.24
60874;BME280;46715;40.642;-7.920;2023-07-02T06:34:39;96243.22;;;24.42;59.55
60874;BME280;46715;40.642;-7.920;2023-07-02T06:36:40;96236.22;;;25.10;57.42
60874;BME280;46715;40.642;-7.920;2023-07-02T06:38:40;96241.50;;;25.75;54.93
60874;BME280;46715;40.642;-7.920;2023-07-02T06:40:41;96234.56;;;26.52;52.56
60874;BME280;46715;40.642;-7.920;2023-07-02T06:42:42;96242.81;;;26.88;51.58
60874;BME280;46715;40.642;-7.920;2023-07-02T06:44:42;96243.25;;;26.98;51.02
60874;BME280;46715;40.642;-7.920;2023-07-02T06:46:46;96245.47;;;26.81;50.47
60874;BME280;46715;40.642;-7.920;2023-07-02T06:48:46;96235.41;;;26.67;51.18
60874;BME280;46715;40.642;-7.920;2023-07-02T06:50:47;96239.13;;;26.52;52.26
60874;BME280;46715;40.642;-7.920;2023-07-02T06:52:48;96244.44;;;26.48;51.33
60874;BME280;46715;40.642;-7.920;2023-07-02T06:54:49;96241.31;;;26.35;52.04
60874;BME280;46715;40.642;-7.920;2023-07-02T06:56:49;96246.28;;;26.33;52.05
60874;BME280;46715;40.642;-7.920;2023-07-02T06:58:51;96246.88;;;26.16;52.45
60874;BME280;46715;40.642;-7.920;2023-07-02T07:00:52;96247.72;;;25.86;53.21
60874;BME280;46715;40.642;-7.920;2023-07-02T07:02:53;96244.78;;;25.57;54.04
60874;BME280;46715;40.642;-7.920;2023-07-02T07:04:53;96244.00;;;25.57;53.93
60874;BME280;46715;40.642;-7.920;2023-07-02T07:06:54;96243.56;;;25.51;54.52
60874;BME280;46715;40.642;-7.920;2023-07-02T07:08:55;96241.34;;;25.57;54.93
60874;BME280;46715;40.642;-7.920;2023-07-02T07:10:56;96248.06;;;25.43;54.65
60874;BME280;46715;40.642;-7.920;2023-07-02T07:12:57;96247.50;;;25.30;55.15
60874;BME280;46715;40.642;-7.920;2023-07-02T07:14:57;96250.13;;;25.57;54.03
60874;BME280;46715;40.642;-7.920;2023-07-02T07:16:58;96248.69;;;25.67;54.44
60874;BME280;46715;40.642;-7.920;2023-07-02T07:18:58;96254.50;;;25.76;53.77
60874;BME280;46715;40.642;-7.920;2023-07-02T07:20:59;96241.31;;;25.94;53.34
60874;BME280;46715;40.642;-7.920;2023-07-02T07:23:02;96247.75;;;26.27;52.79
60874;BME280;46715;40.642;-7.920;2023-07-02T07:25:03;96247.69;;;26.72;52.36
60874;BME280;46715;40.642;-7.920;2023-07-02T07:27:04;96239.84;;;27.04;50.54
60874;BME280;46715;40.642;-7.920;2023-07-02T07:29:05;96244.84;;;27.10;50.45
60874;BME280;46715;40.642;-7.920;2023-07-02T07:31:05;96245.25;;;27.12;50.26
60874;BME280;46715;40.642;-7.920;2023-07-02T07:33:06;96242.53;;;27.04;50.29
60874;BME280;46715;40.642;-7.920;2023-07-02T07:35:07;96252.03;;;26.98;50.03
60874;BME280;46715;40.642;-7.920;2023-07-02T07:37:08;96252.44;;;27.00;50.31
60874;BME280;46715;40.642;-7.920;2023-07-02T07:39:08;96251.91;;;27.43;49.44
60874;BME280;46715;40.642;-7.920;2023-07-02T07:41:09;96243.19;;;27.75;48.13
60874;BME280;46715;40.642;-7.920;2023-07-02T07:43:10;96242.06;;;28.55;46.49
60874;BME280;46715;40.642;-7.920;2023-07-02T07:45:11;96244.16;;;29.44;44.60
60874;BME280;46715;40.642;-7.920;2023-07-02T07:47:12;96247.34;;;29.95;43.25
60874;BME280;46715;40.642;-7.920;2023-07-02T07:49:13;96241.44;;;30.59;42.36
60874;BME280;46715;40.642;-7.920;2023-07-02T07:51:14;96239.31;;;30.82;41.31
60874;BME280;46715;40.642;-7.920;2023-07-02T07:53:14;96245.47;;;32.06;39.40
60874;BME280;46715;40.642;-7.920;2023-07-02T07:55:15;96237.34;;;33.01;36.59
60874;BME280;46715;40.642;-7.920;2023-07-02T07:57:15;96237.16;;;33.48;35.49
60874;BME280;46715;40.642;-7.920;2023-07-02T07:59:16;96235.06;;;34.25;34.78
60874;BME280;46715;40.642;-7.920;2023-07-02T08:01:17;96243.75;;;34.79;33.99
60874;BME280;46715;40.642;-7.920;2023-07-02T08:03:17;96239.47;;;34.65;34.21
60874;BME280;46715;40.642;-7.920;2023-07-02T08:05:18;96242.34;;;35.04;33.05
60874;BME280;46715;40.642;-7.920;2023-07-02T08:07:19;96234.44;;;35.64;32.88
60874;BME280;46715;40.642;-7.920;2023-07-02T08:09:20;96232.84;;;35.93;31.84
60874;BME280;46715;40.642;-7.920;2023-07-02T08:11:20;96239.63;;;35.33;32.69
60874;BME280;46715;40.642;-7.920;2023-07-02T08:13:21;96242.03;;;35.57;31.91
60874;BME280;46715;40.642;-7.920;2023-07-02T08:15:22;96239.84;;;35.77;31.68
60874;BME280;46715;40.642;-7.920;2023-07-02T08:17:23;96236.28;;;35.67;31.61
60874;BME280;46715;40.642;-7.920;2023-07-02T08:19:23;96241.03;;;36.63;31.07
60874;BME280;46715;40.642;-7.920;2023-07-02T08:21:25;96242.97;;;36.97;30.31
60874;BME280;46715;40.642;-7.920;2023-07-02T08:23:25;96239.34;;;37.45;29.73
60874;BME280;46715;40.642;-7.920;2023-07-02T08:25:26;96242.59;;;38.12;28.80
60874;BME280;46715;40.642;-7.920;2023-07-02T08:27:27;96241.16;;;38.29;28.19
60874;BME280;46715;40.642;-7.920;2023-07-02T08:29:29;96229.75;;;38.21;28.42
60874;BME280;46715;40.642;-7.920;2023-07-02T08:31:30;96231.00;;;38.39;27.85
60874;BME280;46715;40.642;-7.920;2023-07-02T08:33:31;96232.25;;;37.88;28.42
60874;BME280;46715;40.642;-7.920;2023-07-02T08:35:31;96232.31;;;38.07;28.67
60874;BME280;46715;40.642;-7.920;2023-07-02T08:37:32;96231.56;;;38.15;28.15
60874;BME280;46715;40.642;-7.920;2023-07-02T08:39:33;96235.91;;;38.03;29.32
60874;BME280;46715;40.642;-7.920;2023-07-02T08:41:46;96235.63;;;38.01;28.61
60874;BME280;46715;40.642;-7.920;2023-07-02T08:43:47;96224.53;;;37.86;28.14
60874;BME280;46715;40.642;-7.920;2023-07-02T08:45:49;96241.44;;;37.41;29.31
60874;BME280;46715;40.642;-7.920;2023-07-02T08:47:50;96233.00;;;37.26;29.10
60874;BME280;46715;40.642;-7.920;2023-07-02T08:49:51;96230.59;;;37.50;29.45
60874;BME280;46715;40.642;-7.920;2023-07-02T08:51:52;96237.19;;;37.17;29.71
60874;BME280;46715;40.642;-7.920;2023-07-02T08:53:52;96237.69;;;37.47;29.14
60874;BME280;46715;40.642;-7.920;2023-07-02T08:55:53;96233.16;;;37.85;29.07
60874;BME280;46715;40.642;-7.920;2023-07-02T08:57:54;96232.38;;;37.44;29.26
60874;BME280;46715;40.642;-7.920;2023-07-02T08:59:54;96235.66;;;37.70;28.48
60874;BME280;46715;40.642;-7.920;2023-07-02T09:01:55;96229.00;;;37.30;29.74
60874;BME280;46715;40.642;-7.920;2023-07-02T09:03:59;96234.00;;;37.73;29.14
60874;BME280;46715;40.642;-7.920;2023-07-02T09:06:07;96239.38;;;37.54;29.05
60874;BME280;46715;40.642;-7.920;2023-07-02T09:08:08;96237.06;;;37.21;29.88
60874;BME280;46715;40.642;-7.920;2023-07-02T09:10:09;96228.63;;;37.82;28.67
60874;BME280;46715;40.642;-7.920;2023-07-02T09:12:09;96228.97;;;38.12;28.47
60874;BME280;46715;40.642;-7.920;2023-07-02T09:14:11;96226.91;;;38.44;27.82
60874;BME280;46715;40.642;-7.920;2023-07-02T09:16:31;96233.84;;;37.67;28.80
60874;BME280;46715;40.642;-7.920;2023-07-02T09:18:33;96230.19;;;38.20;29.28
60874;BME280;46715;40.642;-7.920;2023-07-02T09:20:33;96226.25;;;38.02;28.81
60874;BME280;46715;40.642;-7.920;2023-07-02T09:22:35;96237.56;;;37.92;28.65
60874;BME280;46715;40.642;-7.920;2023-07-02T09:24:36;96233.09;;;38.16;28.69
60874;BME280;46715;40.642;-7.920;2023-07-02T09:26:36;96234.66;;;38.36;28.14
60874;BME280;46715;40.642;-7.920;2023-07-02T09:28:37;96234.53;;;37.90;29.08
60874;BME280;46715;40.642;-7.920;2023-07-02T09:30:48;96234.28;;;38.15;28.65
60874;BME280;46715;40.642;-7.920;2023-07-02T09:32:50;96231.44;;;38.28;28.79
60874;BME280;46715;40.642;-7.920;2023-07-02T09:34:53;96229.03;;;38.49;28.81
60874;BME280;46715;40.642;-7.920;2023-07-02T09:36:54;96230.84;;;38.98;27.72
60874;BME280;46715;40.642;-7.920;2023-07-02T09:38:56;96231.88;;;39.10;27.34
60874;BME280;46715;40.642;-7.920;2023-07-02T09:40:57;96229.34;;;39.07;27.83
60874;BME280;46715;40.642;-7.920;2023-07-02T09:42:59;96234.72;;;39.34;27.09
60874;BME280;46715;40.642;-7.920;2023-07-02T09:45:00;96236.19;;;39.45;27.14
60874;BME280;46715;40.642;-7.920;2023-07-02T09:47:04;96237.13;;;39.42;27.17
60874;BME280;46715;40.642;-7.920;2023-07-02T09:49:07;96249.78;;;39.20;28.27
60874;BME280;46715;40.642;-7.920;2023-07-02T09:51:09;96241.06;;;39.41;27.60
60874;BME280;46715;40.642;-7.920;2023-07-02T09:53:10;96237.38;;;39.62;27.24
60874;BME280;46715;40.642;-7.920;2023-07-02T09:55:11;96237.53;;;39.49;27.07
60874;BME280;46715;40.642;-7.920;2023-07-02T09:57:12;96244.19;;;38.96;27.91
60874;BME280;46715;40.642;-7.920;2023-07-02T09:59:14;96246.75;;;39.00;27.80
60874;BME280;46715;40.642;-7.920;2023-07-02T10:01:15;96237.63;;;39.21;27.41
60874;BME280;46715;40.642;-7.920;2023-07-02T10:03:16;96249.44;;;39.28;27.10
60874;BME280;46715;40.642;-7.920;2023-07-02T10:05:30;96244.66;;;39.47;27.40
60874;BME280;46715;40.642;-7.920;2023-07-02T10:07:32;96246.88;;;39.24;26.90
60874;BME280;46715;40.642;-7.920;2023-07-02T10:09:38;96242.47;;;39.36;27.68
60874;BME280;46715;40.642;-7.920;2023-07-02T10:11:39;96243.88;;;38.94;28.65
60874;BME280;46715;40.642;-7.920;2023-07-02T10:13:40;96249.34;;;38.94;27.96
60874;BME280;46715;40.642;-7.920;2023-07-02T10:15:41;96246.41;;;39.35;27.43
60874;BME280;46715;40.642;-7.920;2023-07-02T10:17:54;96240.13;;;39.53;27.47
60874;BME280;46715;40.642;-7.920;2023-07-02T10:20:04;96248.78;;;39.85;26.97
60874;BME280;46715;40.642;-7.920;2023-07-02T10:22:10;96245.09;;;39.54;26.68
60874;BME280;46715;40.642;-7.920;2023-07-02T10:24:17;96253.03;;;39.43;27.33
60874;BME280;46715;40.642;-7.920;2023-07-02T10:26:19;96255.56;;;39.65;27.09
60874;BME280;46715;40.642;-7.920;2023-07-02T10:28:21;96245.53;;;39.01;27.11
60874;BME280;46715;40.642;-7.920;2023-07-02T10:30:33;96248.75;;;38.90;27.75
60874;BME280;46715;40.642;-7.920;2023-07-02T10:32:37;96249.16;;;38.61;28.15
60874;BME280;46715;40.642;-7.920;2023-07-02T10:34:38;96256.31;;;37.90;28.34
60874;BME280;46715;40.642;-7.920;2023-07-02T10:36:39;96252.19;;;38.26;28.12